createdAt,value
2023-02-13T00:00:54.869Z,6.10
2023-02-13T00:03:22.808Z,5.95
2023-02-13T00:05:50.491Z,2.80
2023-02-13T00:08:18.339Z,8.27
2023-02-13T00:10:46.102Z,6.78
2023-02-13T00:13:16.502Z,12.10
2023-02-13T00:15:44.414Z,7.30
2023-02-13T00:18:12.361Z,11.65
2023-02-13T00:20:40.074Z,10.27
2023-02-13T00:23:07.609Z,11.80
2023-02-13T00:25:35.166Z,10.35
2023-02-13T00:28:02.731Z,12.10
2023-02-13T00:30:30.461Z,9.30
2023-02-13T00:32:58.036Z,10.68
2023-02-13T00:35:25.596Z,7.97
2023-02-13T00:37:53.478Z,12.32
2023-02-13T00:40:25.481Z,10.70
2023-02-13T00:42:53.065Z,12.98
2023-02-13T00:45:20.641Z,9.88
2023-02-13T00:47:48.252Z,11.35
2023-02-13T00:50:15.953Z,7.28
2023-02-13T00:52:43.605Z,5.95
2023-02-13T00:55:13.438Z,13.13
2023-02-13T00:57:40.980Z,10.52
2023-02-13T01:00:09.127Z,12.48
2023-02-13T01:02:36.762Z,12.02
2023-02-13T01:05:04.679Z,9.15
2023-02-13T01:07:32.289Z,7.95
2023-02-13T01:09:59.915Z,10.73
2023-02-13T01:12:27.642Z,10.77
2023-02-13T01:14:55.417Z,11.55
2023-02-13T01:17:23.104Z,14.57
2023-02-13T01:19:50.737Z,7.93
2023-02-13T01:22:18.438Z,10.55
2023-02-13T01:24:46.032Z,11.55
2023-02-13T01:27:13.733Z,9.70
2023-02-13T01:29:41.336Z,10.38
2023-02-13T01:32:09.158Z,11.77
2023-02-13T01:34:36.762Z,5.80
2023-02-13T01:37:04.984Z,12.23
2023-02-13T01:39:32.765Z,10.00
2023-02-13T01:42:00.399Z,15.68
2023-02-13T01:44:48.103Z,11.57
2023-02-13T01:47:45.948Z,11.77
2023-02-13T01:50:26.326Z,15.63
2023-02-13T01:53:05.428Z,12.10
2023-02-13T01:55:35.277Z,12.13
2023-02-13T01:58:14.230Z,12.95
2023-02-13T02:00:43.884Z,8.90
2023-02-13T02:03:15.878Z,8.80
2023-02-13T02:05:43.846Z,9.52
2023-02-13T02:08:14.596Z,8.65
2023-02-13T02:10:42.640Z,12.40
2023-02-13T02:13:19.009Z,12.20
2023-02-13T02:15:48.289Z,12.90
2023-02-13T02:18:18.398Z,12.45
2023-02-13T02:21:10.475Z,11.00
2023-02-13T02:24:19.499Z,12.65
2023-02-13T02:27:08.749Z,10.93
2023-02-13T02:29:51.840Z,8.82
2023-02-13T02:32:43.030Z,12.20
2023-02-13T02:35:34.882Z,11.30
2023-02-13T02:38:10.568Z,10.57
2023-02-13T02:41:02.589Z,14.38
2023-02-13T02:43:48.277Z,11.45
2023-02-13T02:46:23.326Z,7.75
2023-02-13T02:49:19.646Z,13.32
2023-02-13T02:52:12.857Z,10.73
2023-02-13T02:55:08.621Z,11.70
2023-02-13T02:58:15.250Z,13.75
2023-02-13T03:01:02.921Z,15.63
2023-02-13T03:03:49.861Z,9.75
2023-02-13T03:06:34.836Z,11.52
2023-02-13T03:09:25.555Z,10.25
2023-02-13T03:12:14.487Z,13.10
2023-02-13T03:14:43.031Z,11.85
2023-02-13T03:17:36.025Z,10.13
2023-02-13T03:23:01.553Z,12.27
2023-02-13T03:25:58.658Z,14.80
2023-02-13T03:28:47.596Z,11.55
2023-02-13T03:31:27.202Z,14.68
2023-02-13T03:34:10.558Z,10.63
2023-02-13T03:40:01.809Z,12.88
2023-02-13T03:42:54.406Z,9.25
2023-02-13T03:45:48.059Z,5.95
2023-02-13T03:48:37.966Z,7.93
2023-02-13T03:51:09.665Z,12.70
2023-02-13T03:53:40.827Z,6.22
2023-02-13T03:56:29.293Z,7.25
2023-02-13T03:59:17.540Z,5.38
2023-02-13T04:02:01.610Z,8.63
2023-02-13T04:04:40.684Z,11.45
2023-02-13T04:07:29.815Z,12.73
2023-02-13T04:10:06.016Z,12.52
2023-02-13T04:13:01.466Z,7.00
2023-02-13T04:15:46.423Z,11.57
2023-02-13T04:18:19.944Z,13.38
2023-02-13T04:20:47.786Z,9.70
2023-02-13T04:23:16.719Z,10.60
2023-02-13T04:25:48.785Z,11.18
2023-02-13T04:28:16.572Z,11.30
2023-02-13T04:30:44.345Z,11.43
2023-02-13T04:33:12.112Z,10.82
2023-02-13T04:35:39.817Z,11.80
2023-02-13T04:38:07.488Z,9.98
2023-02-13T04:40:35.125Z,14.88
2023-02-13T04:43:02.712Z,10.75
2023-02-13T04:45:30.241Z,8.25
2023-02-13T04:47:59.659Z,8.07
2023-02-13T04:50:27.334Z,12.93
2023-02-13T04:52:56.501Z,16.23
2023-02-13T04:55:28.499Z,9.65
2023-02-13T04:57:56.625Z,12.02
2023-02-13T05:00:27.462Z,11.10
2023-02-13T05:03:00.794Z,11.10
2023-02-13T05:05:28.394Z,12.57
2023-02-13T05:07:56.014Z,10.60
2023-02-13T05:10:23.662Z,13.43
2023-02-13T05:12:51.332Z,14.60
2023-02-13T05:15:19.124Z,11.63
2023-02-13T05:17:47.568Z,11.75
2023-02-13T05:20:15.737Z,11.88
2023-02-13T05:23:09.829Z,12.18
2023-02-13T05:25:39.693Z,10.18
2023-02-13T05:28:27.780Z,13.43
2023-02-13T05:30:55.626Z,10.15
2023-02-13T05:33:23.544Z,12.57
2023-02-13T05:35:51.228Z,12.32
2023-02-13T05:38:19.004Z,11.30
2023-02-13T05:40:46.578Z,12.38
2023-02-13T05:43:14.206Z,10.98
2023-02-13T05:45:41.864Z,8.90
2023-02-13T05:48:09.399Z,13.88
2023-02-13T05:50:37.128Z,10.05
2023-02-13T05:53:04.703Z,12.55
2023-02-13T05:55:32.398Z,10.00
2023-02-13T05:58:00.078Z,11.30
2023-02-13T06:00:27.600Z,11.00
2023-02-13T06:02:55.349Z,12.80
2023-02-13T06:05:22.971Z,10.88
2023-02-13T06:07:50.820Z,10.57
2023-02-13T06:10:19.333Z,11.75
2023-02-13T06:12:47.078Z,9.73
2023-02-13T06:15:14.755Z,12.57
2023-02-13T06:17:42.340Z,9.68
2023-02-13T06:20:10.355Z,11.63
2023-02-13T06:22:37.952Z,11.20
2023-02-13T06:25:05.996Z,11.95
2023-02-13T06:27:33.730Z,11.25
2023-02-13T06:30:01.319Z,9.35
2023-02-13T06:32:29.588Z,11.35
2023-02-13T06:34:57.146Z,10.55
2023-02-13T06:37:24.913Z,9.45
2023-02-13T06:39:52.459Z,10.57
2023-02-13T06:42:20.747Z,9.00
2023-02-13T06:44:48.552Z,11.27
2023-02-13T06:47:16.245Z,8.13
2023-02-13T06:49:43.932Z,11.18
2023-02-13T06:52:11.498Z,8.98
2023-02-13T06:54:47.162Z,8.85
2023-02-13T06:57:16.568Z,11.27
2023-02-13T06:59:44.312Z,7.50
2023-02-13T07:02:13.139Z,10.45
2023-02-13T07:04:41.040Z,8.25
2023-02-13T07:07:08.596Z,9.80
2023-02-13T07:09:37.522Z,7.82
2023-02-13T07:12:05.991Z,7.55
2023-02-13T07:14:33.674Z,9.85
2023-02-13T07:17:01.238Z,7.63
2023-02-13T07:19:28.890Z,10.88
2023-02-13T07:21:56.476Z,10.15
2023-02-13T07:24:24.171Z,9.75
2023-02-13T07:26:51.881Z,10.85
2023-02-13T07:29:19.541Z,8.43
2023-02-13T07:31:47.215Z,9.35
2023-02-13T07:34:14.876Z,4.80
2023-02-13T07:36:42.453Z,9.70
2023-02-13T07:39:10.130Z,11.68
2023-02-13T07:41:37.652Z,10.27
2023-02-13T07:44:07.816Z,8.38
2023-02-13T07:46:35.579Z,13.73
2023-02-13T07:49:03.147Z,20.70
2023-02-13T07:51:30.672Z,11.82
2023-02-13T07:53:58.284Z,10.93
2023-02-13T07:56:25.892Z,9.90
2023-02-13T07:58:53.483Z,11.93
2023-02-13T08:01:21.118Z,13.02
2023-02-13T08:03:53.519Z,12.00
2023-02-13T08:06:23.003Z,13.35
2023-02-13T08:09:10.515Z,9.48
2023-02-13T08:11:55.211Z,9.35
2023-02-13T08:14:25.027Z,7.80
2023-02-13T08:16:54.281Z,11.00
2023-02-13T08:19:21.831Z,8.73
2023-02-13T08:21:49.485Z,8.00
2023-02-13T08:24:17.147Z,14.00
2023-02-13T08:26:44.880Z,17.83
2023-02-13T08:29:12.557Z,14.23
2023-02-13T08:31:40.195Z,16.17
2023-02-13T08:34:07.952Z,11.95
2023-02-13T08:36:35.512Z,15.07
2023-02-13T08:39:03.163Z,7.20
2023-02-13T08:41:30.744Z,13.73
2023-02-13T08:43:58.412Z,10.63
2023-02-13T08:46:25.999Z,12.93
2023-02-13T08:48:53.705Z,11.23
2023-02-13T08:51:21.545Z,7.50
2023-02-13T08:53:49.126Z,15.32
2023-02-13T08:56:17.182Z,2.55
2023-02-13T08:58:45.083Z,2.67
2023-02-13T09:01:12.872Z,10.82
2023-02-13T09:03:40.544Z,9.27
2023-02-13T09:06:08.381Z,4.70
2023-02-13T09:08:36.745Z,4.10
2023-02-13T09:11:07.849Z,5.38
2023-02-13T09:13:37.441Z,5.68
2023-02-13T09:16:06.962Z,2.95
2023-02-13T09:18:35.840Z,5.68
2023-02-13T09:21:09.048Z,6.13
2023-02-13T09:23:40.468Z,6.07
2023-02-13T09:26:13.441Z,5.00
2023-02-13T09:28:41.619Z,5.53
2023-02-13T09:31:11.693Z,2.83
2023-02-13T09:33:39.624Z,3.95
2023-02-13T09:36:25.738Z,5.95
2023-02-13T09:38:55.449Z,4.65
2023-02-13T09:41:28.521Z,3.40
2023-02-13T09:44:03.382Z,6.60
2023-02-13T09:46:37.333Z,3.53
2023-02-13T09:51:38.464Z,5.10
2023-02-13T09:54:08.133Z,6.32
2023-02-13T09:57:00.797Z,10.10
2023-02-13T09:59:28.719Z,1.58
2023-02-13T10:02:03.038Z,8.70
2023-02-13T10:04:40.660Z,7.50
2023-02-13T10:07:38.320Z,4.95
2023-02-13T10:10:14.831Z,7.75
2023-02-13T10:13:07.533Z,8.38
2023-02-13T10:15:42.139Z,8.95
2023-02-13T10:18:45.457Z,4.35
2023-02-13T10:21:15.466Z,4.10
2023-02-13T10:23:51.926Z,3.78
2023-02-13T10:26:22.461Z,9.05
2023-02-13T10:29:25.167Z,5.07
2023-02-13T10:34:27.821Z,7.55
2023-02-13T10:36:56.074Z,3.22
2023-02-13T10:39:26.829Z,5.28
2023-02-13T10:42:13.855Z,2.97
2023-02-13T10:45:25.829Z,3.05
2023-02-13T10:47:53.388Z,6.30
2023-02-13T10:50:48.718Z,1.95
2023-02-13T10:53:37.447Z,3.50
2023-02-13T10:56:18.673Z,3.17
2023-02-13T10:59:18.221Z,5.72
2023-02-13T11:01:54.919Z,5.60
2023-02-13T11:04:22.915Z,4.18
2023-02-13T11:06:58.128Z,1.30
2023-02-13T11:09:26.523Z,5.82
2023-02-13T11:11:54.531Z,3.17
2023-02-13T11:14:27.351Z,2.13
2023-02-13T11:16:58.154Z,4.03
2023-02-13T11:19:54.229Z,3.13
2023-02-13T11:22:45.587Z,2.72
2023-02-13T11:25:30.381Z,2.95
2023-02-13T11:28:21.311Z,3.72
2023-02-13T11:30:49.401Z,3.60
2023-02-13T11:33:20.120Z,4.63
2023-02-13T11:35:48.312Z,5.43
2023-02-13T11:38:18.943Z,1.75
2023-02-13T11:41:08.268Z,5.35
2023-02-13T11:43:54.337Z,8.55
2023-02-13T11:46:26.957Z,8.50
2023-02-13T11:49:07.028Z,7.18
2023-02-13T11:51:49.789Z,4.55
2023-02-13T11:54:32.270Z,5.22
2023-02-13T11:57:05.462Z,7.40
2023-02-13T11:59:42.257Z,4.45
2023-02-13T12:02:30.970Z,5.53
2023-02-13T12:05:21.977Z,5.68
2023-02-13T12:07:50.145Z,7.60
2023-02-13T12:10:27.105Z,6.93
2023-02-13T12:13:18.276Z,6.45
2023-02-13T12:15:48.142Z,5.18
2023-02-13T12:18:51.176Z,6.40
2023-02-13T12:21:29.311Z,7.95
2023-02-13T12:24:04.066Z,8.60
2023-02-13T12:26:38.303Z,5.28
2023-02-13T12:29:30.235Z,5.50
2023-02-13T12:32:31.109Z,5.20
2023-02-13T12:35:05.000Z,7.93
2023-02-13T12:40:39.591Z,4.38
2023-02-13T12:43:07.080Z,3.55
2023-02-13T12:45:43.591Z,3.30
2023-02-13T12:48:33.038Z,5.97
2023-02-13T12:51:25.352Z,6.80
2023-02-13T12:54:04.921Z,7.60
2023-02-13T12:56:35.291Z,8.65
2023-02-13T12:59:21.494Z,8.30
2023-02-13T13:02:28.142Z,6.13
2023-02-13T13:05:18.280Z,7.55
2023-02-13T13:08:04.296Z,7.35
2023-02-13T13:10:31.882Z,8.00
2023-02-13T13:13:32.026Z,7.43
2023-02-13T13:16:05.483Z,8.02
2023-02-13T13:18:57.590Z,6.85
2023-02-13T13:21:40.208Z,5.57
2023-02-13T13:24:18.745Z,8.70
2023-02-13T13:26:50.127Z,7.43
2023-02-13T13:29:26.499Z,9.93
2023-02-13T13:32:02.622Z,9.32
2023-02-13T13:34:32.035Z,8.30
2023-02-13T13:37:14.541Z,10.00
2023-02-13T13:39:55.682Z,7.07
2023-02-13T13:42:36.050Z,10.65
2023-02-13T13:45:26.193Z,9.35
2023-02-13T13:48:21.270Z,6.97
2023-02-13T13:50:50.045Z,7.47
2023-02-13T13:53:20.718Z,8.25
2023-02-13T13:55:50.948Z,5.90
2023-02-13T13:58:33.256Z,8.27
2023-02-13T14:01:32.402Z,10.05
2023-02-13T14:04:04.320Z,4.70
2023-02-13T14:06:44.032Z,6.15
2023-02-13T14:09:40.229Z,4.68
2023-02-13T14:12:31.052Z,11.98
2023-02-13T14:15:00.608Z,9.10
2023-02-13T14:17:46.737Z,7.88
2023-02-13T14:20:43.568Z,4.40
2023-02-13T14:23:36.471Z,6.72
2023-02-13T14:26:16.194Z,5.72
2023-02-13T14:28:50.616Z,4.80
2023-02-13T14:31:36.055Z,7.20
2023-02-13T14:34:06.481Z,8.48
2023-02-13T14:36:40.087Z,7.88
2023-02-13T14:39:09.324Z,5.63
2023-02-13T14:41:51.898Z,8.73
2023-02-13T14:44:40.540Z,7.05
2023-02-13T14:47:45.840Z,6.65
2023-02-13T14:50:20.988Z,9.75
2023-02-13T14:52:50.142Z,9.13
2023-02-13T14:55:21.217Z,4.00
2023-02-13T14:57:58.242Z,9.00
2023-02-13T15:00:28.632Z,6.93
2023-02-13T15:03:16.514Z,7.50
2023-02-13T15:05:52.073Z,11.48
2023-02-13T15:08:34.796Z,2.47
2023-02-13T15:11:02.557Z,9.77
2023-02-13T15:13:36.233Z,5.22
2023-02-13T15:16:14.947Z,5.13
2023-02-13T15:18:52.851Z,5.30
2023-02-13T15:21:24.774Z,3.38
2023-02-13T15:23:58.375Z,4.82
2023-02-13T15:26:29.133Z,6.72
2023-02-13T15:29:25.904Z,5.65
2023-02-13T15:31:58.327Z,6.00
2023-02-13T15:34:35.018Z,8.23
2023-02-13T15:37:03.434Z,11.85
2023-02-13T15:39:32.729Z,7.97
2023-02-13T15:42:03.205Z,10.25
2023-02-13T15:44:35.810Z,10.07
2023-02-13T15:47:08.920Z,7.20
2023-02-13T15:49:44.810Z,5.20
2023-02-13T15:52:24.297Z,4.43
2023-02-13T15:54:56.854Z,4.65
2023-02-13T15:57:27.239Z,6.70
2023-02-13T15:59:59.272Z,6.65
2023-02-13T16:02:40.673Z,2.97
2023-02-13T16:05:13.180Z,4.70
2023-02-13T16:07:53.245Z,6.93
2023-02-13T16:10:33.905Z,9.10
2023-02-13T16:13:17.035Z,7.45
2023-02-13T16:15:45.017Z,3.60
2023-02-13T16:18:20.387Z,3.78
2023-02-13T16:20:56.807Z,6.18
2023-02-13T16:23:24.966Z,3.38
2023-02-13T16:25:53.346Z,3.40
2023-02-13T16:28:24.583Z,5.15
2023-02-13T16:31:01.258Z,6.30
2023-02-13T16:33:31.154Z,5.22
2023-02-13T16:36:18.495Z,2.58
2023-02-13T16:38:48.210Z,5.38
2023-02-13T16:41:29.027Z,6.22
2023-02-13T16:44:01.738Z,6.60
2023-02-13T16:46:40.386Z,3.15
2023-02-13T16:49:11.333Z,6.72
2023-02-13T16:51:49.643Z,7.22
2023-02-13T16:54:29.591Z,6.97
2023-02-13T16:57:07.569Z,8.05
2023-02-13T16:59:56.131Z,6.28
2023-02-13T17:02:25.325Z,4.53
2023-02-13T17:05:22.236Z,5.30
2023-02-13T17:07:53.346Z,4.90
2023-02-13T17:10:28.549Z,7.45
2023-02-13T17:12:59.185Z,7.65
2023-02-13T17:15:28.996Z,6.22
2023-02-13T17:17:56.795Z,6.22
2023-02-13T17:20:27.593Z,6.10
2023-02-13T17:22:57.551Z,5.95
2023-02-13T17:25:31.374Z,6.93
2023-02-13T17:28:21.366Z,9.60
2023-02-13T17:30:54.713Z,10.43
2023-02-13T17:33:31.255Z,9.60
2023-02-13T17:35:59.080Z,9.00
2023-02-13T17:38:26.734Z,6.68
2023-02-13T17:40:54.874Z,9.07
2023-02-13T17:43:23.101Z,6.97
2023-02-13T17:45:50.960Z,6.07
2023-02-13T17:48:18.766Z,7.22
2023-02-13T17:50:47.267Z,7.18
2023-02-13T17:53:25.265Z,8.20
2023-02-13T17:55:53.310Z,8.00
2023-02-13T17:58:21.013Z,9.00
2023-02-13T18:00:48.725Z,5.25
2023-02-13T18:03:16.768Z,6.60
2023-02-13T18:05:48.866Z,6.47
2023-02-13T18:08:17.318Z,7.32
2023-02-13T18:10:44.882Z,7.40
2023-02-13T18:13:12.593Z,6.80
2023-02-13T18:15:43.318Z,4.65
2023-02-13T18:18:12.308Z,3.95
2023-02-13T18:20:39.832Z,5.28
2023-02-13T18:23:09.052Z,3.67
2023-02-13T18:25:37.066Z,5.07
2023-02-13T18:28:04.621Z,5.80
2023-02-13T18:30:32.189Z,5.18
2023-02-13T18:32:59.881Z,4.55
2023-02-13T18:35:27.751Z,6.90
2023-02-13T18:37:55.332Z,7.85
2023-02-13T18:40:22.954Z,6.00
2023-02-13T18:42:51.284Z,8.10
2023-02-13T18:45:19.213Z,5.82
2023-02-13T18:47:46.758Z,2.65
2023-02-13T18:50:15.614Z,6.22
2023-02-13T18:52:43.192Z,5.63
2023-02-13T18:55:11.065Z,7.43
2023-02-13T18:57:43.679Z,7.03
2023-02-13T19:00:12.971Z,10.00
2023-02-13T19:02:40.622Z,10.40
2023-02-13T19:05:09.080Z,8.63
2023-02-13T19:07:37.167Z,11.50
2023-02-13T19:10:04.945Z,8.50
2023-02-13T19:12:32.722Z,6.55
2023-02-13T19:15:00.297Z,6.63
2023-02-13T19:17:27.953Z,8.00
2023-02-13T19:19:56.079Z,7.97
2023-02-13T19:22:23.689Z,8.15
2023-02-13T19:24:51.467Z,7.22
2023-02-13T19:27:19.387Z,8.48
2023-02-13T19:29:47.800Z,8.30
2023-02-13T19:32:16.216Z,6.70
2023-02-13T19:34:43.943Z,5.25
2023-02-13T19:37:11.523Z,4.43
2023-02-13T19:39:39.332Z,13.00
2023-02-13T19:42:06.872Z,6.90
2023-02-13T19:44:34.500Z,6.95
2023-02-13T19:47:02.076Z,11.38
2023-02-13T19:49:29.697Z,12.85
2023-02-13T19:51:57.263Z,10.93
2023-02-13T19:54:24.834Z,6.32
2023-02-13T19:56:54.965Z,9.95
2023-02-13T19:59:22.593Z,9.90
2023-02-13T20:01:50.149Z,9.80
2023-02-13T20:04:17.842Z,2.83
2023-02-13T20:06:45.444Z,5.55
2023-02-13T20:09:14.237Z,8.38
2023-02-13T20:11:42.663Z,12.55
2023-02-13T20:14:15.255Z,7.72
2023-02-13T20:16:45.906Z,8.98
2023-02-13T20:19:14.506Z,10.15
2023-02-13T20:21:43.049Z,7.85
2023-02-13T20:24:11.371Z,10.18
2023-02-13T20:26:40.191Z,10.13
2023-02-13T20:29:08.272Z,10.73
2023-02-13T20:31:36.886Z,9.27
2023-02-13T20:34:06.885Z,11.15
2023-02-13T20:36:35.115Z,8.68
2023-02-13T20:39:05.906Z,9.07
2023-02-13T20:41:35.601Z,8.45
2023-02-13T20:44:06.568Z,9.88
2023-02-13T20:46:36.669Z,11.65
2023-02-13T20:49:04.465Z,11.00
2023-02-13T20:51:32.098Z,8.38
2023-02-13T20:54:00.694Z,12.50
2023-02-13T20:56:28.936Z,13.52
2023-02-13T20:58:58.956Z,10.98
2023-02-13T21:01:35.752Z,11.15
2023-02-13T21:04:03.742Z,11.45
2023-02-13T21:06:34.282Z,9.48
2023-02-13T21:09:03.010Z,8.82
2023-02-13T21:11:31.928Z,9.15
2023-02-13T21:13:59.493Z,11.07
2023-02-13T21:16:30.267Z,17.48
2023-02-13T21:19:00.429Z,9.85
2023-02-13T21:21:31.601Z,13.38
2023-02-13T21:24:02.468Z,10.00
2023-02-13T21:26:30.994Z,11.20
2023-02-13T21:28:58.918Z,10.35
2023-02-13T21:31:36.091Z,10.00
2023-02-13T21:34:13.472Z,7.82
2023-02-13T21:36:41.232Z,9.25
2023-02-13T21:39:11.287Z,7.55
2023-02-13T21:41:43.814Z,9.07
2023-02-13T21:44:16.202Z,7.13
2023-02-13T21:46:45.334Z,8.73
2023-02-13T21:49:16.112Z,10.38
2023-02-13T21:51:44.372Z,9.60
2023-02-13T21:54:12.630Z,11.07
2023-02-13T21:56:42.795Z,9.60
2023-02-13T21:59:14.914Z,11.05
2023-02-13T22:01:47.603Z,8.88
2023-02-13T22:04:15.570Z,7.50
2023-02-13T22:06:43.465Z,12.02
2023-02-13T22:09:13.442Z,9.80
2023-02-13T22:11:41.847Z,9.85
2023-02-13T22:14:13.735Z,8.48
2023-02-13T22:16:42.777Z,7.20
2023-02-13T22:19:14.333Z,9.25
2023-02-13T22:21:42.118Z,11.27
2023-02-13T22:24:09.947Z,9.90
2023-02-13T22:26:40.143Z,9.23
2023-02-13T22:29:10.495Z,9.07
2023-02-13T22:31:38.502Z,10.30
2023-02-13T22:34:06.797Z,11.13
2023-02-13T22:36:39.410Z,7.22
2023-02-13T22:39:08.811Z,9.18
2023-02-13T22:41:36.585Z,9.07
2023-02-13T22:44:04.519Z,9.35
2023-02-13T22:46:33.798Z,5.88
2023-02-13T22:49:02.012Z,5.65
2023-02-13T22:51:35.756Z,7.32
2023-02-13T22:54:04.463Z,6.57
2023-02-13T22:56:32.721Z,6.20
2023-02-13T22:59:00.642Z,6.40
2023-02-13T23:01:29.308Z,8.05
2023-02-13T23:03:57.736Z,8.63
2023-02-13T23:06:25.958Z,5.80
2023-02-13T23:08:53.962Z,8.18
2023-02-13T23:11:46.189Z,5.90
2023-02-13T23:14:14.848Z,8.48
2023-02-13T23:17:01.976Z,7.22
2023-02-13T23:19:30.274Z,8.23
2023-02-13T23:21:58.386Z,6.35
2023-02-13T23:24:26.070Z,7.50
2023-02-13T23:26:53.611Z,8.30
2023-02-13T23:29:21.703Z,6.03
2023-02-13T23:31:49.514Z,8.30
2023-02-13T23:34:17.268Z,7.75
2023-02-13T23:36:44.866Z,8.77
2023-02-13T23:39:12.525Z,8.18
2023-02-13T23:41:40.116Z,7.50
2023-02-13T23:44:07.857Z,7.13
2023-02-13T23:46:35.462Z,8.00
2023-02-13T23:49:03.069Z,7.63
2023-02-13T23:51:30.702Z,5.53
2023-02-13T23:53:58.330Z,8.32
2023-02-13T23:56:26.377Z,8.85
2023-02-13T23:58:56.003Z,4.22
